createdAt,value
2022-09-27T00:02:50.919Z,99077.56
2022-09-27T00:06:06.020Z,99081.31
2022-09-27T00:09:09.616Z,99085.22
2022-09-27T00:12:12.736Z,99069.22
2022-09-27T00:15:15.317Z,99071.84
2022-09-27T00:18:18.737Z,99065.03
2022-09-27T00:21:22.142Z,99061.00
2022-09-27T00:24:25.907Z,99055.16
2022-09-27T00:27:28.592Z,99058.06
2022-09-27T00:30:36.329Z,99049.34
2022-09-27T00:33:39.866Z,99047.84
2022-09-27T00:36:43.916Z,99045.38
2022-09-27T00:39:46.597Z,99045.25
2022-09-27T00:42:50.510Z,99041.66
2022-09-27T00:45:57.913Z,99052.28
2022-09-27T00:49:05.998Z,99044.12
2022-09-27T00:52:14.231Z,99051.34
2022-09-27T00:55:20.910Z,99037.75
2022-09-27T00:58:30.331Z,99037.59
2022-09-27T01:01:33.732Z,99033.50
2022-09-27T01:04:37.967Z,99031.03
2022-09-27T01:07:40.486Z,99026.47
2022-09-27T01:10:53.358Z,99029.47
2022-09-27T01:14:15.097Z,99024.25
2022-09-27T01:17:22.053Z,99022.88
2022-09-27T01:20:45.118Z,99021.34
2022-09-27T01:23:58.895Z,99019.97
2022-09-27T01:27:24.986Z,99017.84
2022-09-27T01:30:30.280Z,99010.75
2022-09-27T01:33:41.658Z,99008.28
2022-09-27T01:37:06.314Z,99007.81
2022-09-27T01:40:19.274Z,98997.00
2022-09-27T01:43:26.078Z,98998.78
2022-09-27T01:46:31.045Z,98991.47
2022-09-27T01:49:41.578Z,98994.13
2022-09-27T01:52:52.049Z,98979.28
2022-09-27T01:55:56.358Z,98973.22
2022-09-27T01:59:12.040Z,98970.28
2022-09-27T02:02:17.523Z,98961.44
2022-09-27T02:05:21.297Z,98964.81
2022-09-27T02:08:45.504Z,98952.94
2022-09-27T02:11:56.206Z,98956.84
2022-09-27T02:15:03.857Z,98958.25
2022-09-27T02:18:16.681Z,98955.03
2022-09-27T02:21:22.966Z,98954.53
2022-09-27T02:24:32.806Z,98957.97
2022-09-27T02:27:39.296Z,98954.97
2022-09-27T02:30:45.562Z,98958.19
2022-09-27T02:33:51.092Z,98955.81
2022-09-27T02:36:55.021Z,98945.41
2022-09-27T02:39:58.510Z,98946.97
2022-09-27T02:43:01.502Z,98947.41
2022-09-27T02:46:05.757Z,98949.78
2022-09-27T02:49:26.775Z,98944.69
2022-09-27T02:52:52.359Z,98947.56
2022-09-27T02:56:08.141Z,98939.03
2022-09-27T02:59:29.771Z,98929.41
2022-09-27T03:02:36.901Z,98937.03
2022-09-27T03:05:47.135Z,98931.22
2022-09-27T03:08:54.921Z,98936.22
2022-09-27T03:11:58.232Z,98929.31
2022-09-27T03:15:01.726Z,98929.31
2022-09-27T03:18:05.739Z,98931.81
2022-09-27T03:21:08.759Z,98925.38
2022-09-27T03:24:12.331Z,98926.72
2022-09-27T03:27:16.544Z,98920.28
2022-09-27T03:30:21.099Z,98920.81
2022-09-27T03:33:24.852Z,98926.34
2022-09-27T03:36:31.202Z,98928.28
2022-09-27T03:39:35.187Z,98923.78
2022-09-27T03:42:38.368Z,98920.22
2022-09-27T03:45:40.821Z,98918.06
2022-09-27T03:48:45.871Z,98915.19
2022-09-27T03:51:49.776Z,98911.66
2022-09-27T03:54:53.096Z,98912.66
2022-09-27T03:57:56.525Z,98913.56
2022-09-27T04:00:59.436Z,98917.94
2022-09-27T04:04:10.235Z,98912.72
2022-09-27T04:07:14.175Z,98905.94
2022-09-27T04:10:16.876Z,98911.53
2022-09-27T04:13:20.061Z,98905.41
2022-09-27T04:16:23.608Z,98917.56
2022-09-27T04:19:29.637Z,98913.22
2022-09-27T04:22:34.759Z,98915.91
2022-09-27T04:25:38.197Z,98912.03
2022-09-27T04:28:41.475Z,98904.25
2022-09-27T04:31:47.864Z,98902.81
2022-09-27T04:35:09.094Z,98898.47
2022-09-27T04:38:11.981Z,98897.66
2022-09-27T04:41:16.089Z,98888.81
2022-09-27T04:44:19.639Z,98892.78
2022-09-27T04:47:23.878Z,98886.72
2022-09-27T04:50:26.992Z,98896.87
2022-09-27T04:53:33.007Z,98892.31
2022-09-27T04:56:42.174Z,98897.06
2022-09-27T04:59:52.963Z,98894.75
2022-09-27T05:02:55.744Z,98885.47
2022-09-27T05:05:58.257Z,98885.69
2022-09-27T05:09:01.319Z,98876.75
2022-09-27T05:12:06.045Z,98873.37
2022-09-27T05:15:11.708Z,98878.41
2022-09-27T05:18:14.612Z,98883.38
2022-09-27T05:21:19.983Z,98875.31
2022-09-27T05:24:22.145Z,98873.84
2022-09-27T05:27:25.697Z,98872.06
2022-09-27T05:30:28.346Z,98870.91
2022-09-27T05:33:33.372Z,98863.91
2022-09-27T05:36:35.692Z,98853.19
2022-09-27T05:39:38.201Z,98858.13
2022-09-27T05:42:44.133Z,98848.66
2022-09-27T05:45:47.492Z,98848.34
2022-09-27T05:48:50.170Z,98847.84
2022-09-27T05:51:53.026Z,98834.94
2022-09-27T05:54:55.723Z,98840.03
2022-09-27T05:58:00.236Z,98845.06
2022-09-27T06:01:03.827Z,98850.19
2022-09-27T06:04:09.239Z,98846.09
2022-09-27T06:07:11.453Z,98849.03
2022-09-27T06:10:16.607Z,98862.94
2022-09-27T06:13:21.642Z,98857.03
2022-09-27T06:16:24.556Z,98850.31
2022-09-27T06:19:32.724Z,98847.88
2022-09-27T06:22:40.216Z,98859.19
2022-09-27T06:25:42.901Z,98854.28
2022-09-27T06:28:46.325Z,98852.97
2022-09-27T06:31:51.057Z,98853.50
2022-09-27T06:34:54.664Z,98861.16
2022-09-27T06:37:59.115Z,98854.97
2022-09-27T06:41:02.488Z,98858.41
2022-09-27T06:44:05.226Z,98848.91
2022-09-27T06:47:12.393Z,98850.87
2022-09-27T06:50:17.488Z,98843.66
2022-09-27T06:53:22.462Z,98840.38
2022-09-27T06:56:27.278Z,98836.13
2022-09-27T06:59:48.364Z,98842.50
2022-09-27T07:02:55.043Z,98846.09
2022-09-27T07:06:05.667Z,98863.47
2022-09-27T07:09:08.167Z,98864.44
2022-09-27T07:12:18.071Z,98870.50
2022-09-27T07:15:21.674Z,98873.47
2022-09-27T07:18:26.714Z,98871.50
2022-09-27T07:21:29.609Z,98862.97
2022-09-27T07:24:34.249Z,98855.25
2022-09-27T07:27:38.605Z,98854.50
2022-09-27T07:30:42.630Z,98865.44
2022-09-27T07:33:44.843Z,98865.37
2022-09-27T07:36:47.808Z,98872.16
2022-09-27T07:39:50.337Z,98866.94
2022-09-27T07:42:56.482Z,98861.59
2022-09-27T07:45:58.815Z,98868.97
2022-09-27T07:49:04.015Z,98853.75
2022-09-27T07:52:07.230Z,98848.25
2022-09-27T07:55:11.601Z,98854.81
2022-09-27T07:58:13.944Z,98859.25
2022-09-27T08:01:18.226Z,98860.59
2022-09-27T08:04:21.717Z,98849.63
2022-09-27T08:07:24.259Z,98853.44
2022-09-27T08:10:31.541Z,98856.00
2022-09-27T08:13:33.683Z,98853.16
2022-09-27T08:16:36.357Z,98845.88
2022-09-27T08:19:40.213Z,98846.69
2022-09-27T08:22:45.809Z,98851.50
2022-09-27T08:25:54.911Z,98854.38
2022-09-27T08:28:58.145Z,98859.50
2022-09-27T08:32:00.962Z,98864.00
2022-09-27T08:35:04.076Z,98858.44
2022-09-27T08:38:06.532Z,98861.03
2022-09-27T08:41:27.204Z,98852.94
2022-09-27T08:44:44.124Z,98852.59
2022-09-27T08:47:50.598Z,98838.47
2022-09-27T08:50:54.433Z,98838.28
2022-09-27T08:54:03.324Z,98842.84
2022-09-27T08:57:15.529Z,98846.12
2022-09-27T09:00:21.378Z,98848.03
2022-09-27T09:03:30.406Z,98849.06
2022-09-27T09:06:47.968Z,98845.66
2022-09-27T09:10:10.497Z,98847.06
2022-09-27T09:13:29.449Z,98842.53
2022-09-27T09:16:31.605Z,98843.69
2022-09-27T09:19:38.650Z,98830.31
2022-09-27T09:22:52.042Z,98821.03
2022-09-27T09:26:10.278Z,98816.94
2022-09-27T09:29:14.823Z,98806.94
2022-09-27T09:32:32.577Z,98797.13
2022-09-27T09:35:38.446Z,98783.88
2022-09-27T09:38:49.355Z,98783.09
2022-09-27T09:42:01.461Z,98794.66
2022-09-27T09:45:09.329Z,98795.38
2022-09-27T09:48:38.631Z,98786.91
2022-09-27T09:51:44.473Z,98788.31
2022-09-27T09:55:07.624Z,98784.97
2022-09-27T09:58:15.474Z,98780.22
2022-09-27T10:01:23.519Z,98771.69
2022-09-27T10:04:29.948Z,98778.56
2022-09-27T10:07:34.681Z,98770.88
2022-09-27T10:10:40.848Z,98773.78
2022-09-27T10:13:44.672Z,98772.91
2022-09-27T10:16:51.021Z,98770.75
2022-09-27T10:19:54.830Z,98767.56
2022-09-27T10:23:12.482Z,98764.94
2022-09-27T10:26:19.260Z,98754.38
2022-09-27T10:29:34.902Z,98750.50
2022-09-27T10:32:40.089Z,98746.81
2022-09-27T10:35:45.228Z,98745.03
2022-09-27T10:38:57.738Z,98746.00
2022-09-27T10:42:00.564Z,98745.66
2022-09-27T10:45:21.796Z,98736.37
2022-09-27T10:48:24.934Z,98739.59
2022-09-27T10:51:31.781Z,98736.59
2022-09-27T10:54:42.744Z,98738.34
2022-09-27T10:57:53.431Z,98735.06
2022-09-27T11:00:57.401Z,98732.56
2022-09-27T11:04:01.400Z,98728.75
2022-09-27T11:07:21.651Z,98726.78
2022-09-27T11:10:36.999Z,98727.59
2022-09-27T11:13:43.225Z,98723.28
2022-09-27T11:16:57.347Z,98717.03
2022-09-27T11:20:18.331Z,98699.47
2022-09-27T11:23:23.581Z,98709.44
2022-09-27T11:26:49.625Z,98701.09
2022-09-27T11:29:54.794Z,98703.09
2022-09-27T11:32:58.711Z,98699.72
2022-09-27T11:36:04.502Z,98694.31
2022-09-27T11:39:14.803Z,98691.56
2022-09-27T11:42:36.358Z,98685.03
2022-09-27T11:49:28.281Z,98673.06
2022-09-27T11:52:38.031Z,98662.72
2022-09-27T11:55:58.885Z,98666.47
2022-09-27T11:59:30.137Z,98662.19
2022-09-27T12:02:55.760Z,98657.84
2022-09-27T12:06:07.849Z,98656.66
2022-09-27T12:09:17.802Z,98657.59
2022-09-27T12:12:26.770Z,98642.56
2022-09-27T12:15:36.163Z,98638.16
2022-09-27T12:18:47.996Z,98630.13
2022-09-27T12:22:02.118Z,98623.63
2022-09-27T12:25:11.247Z,98629.37
2022-09-27T12:28:19.401Z,98629.53
2022-09-27T12:31:30.267Z,98624.94
2022-09-27T12:34:34.181Z,98618.94
2022-09-27T12:37:43.770Z,98616.81
2022-09-27T12:40:51.574Z,98616.81
2022-09-27T12:43:54.352Z,98619.59
2022-09-27T12:46:56.354Z,98616.66
2022-09-27T12:50:07.591Z,98624.91
2022-09-27T12:53:15.780Z,98607.63
2022-09-27T12:56:24.611Z,98603.34
2022-09-27T12:59:40.698Z,98603.06
2022-09-27T13:03:21.328Z,98601.25
2022-09-27T13:06:43.307Z,98590.44
2022-09-27T13:09:47.986Z,98591.78
2022-09-27T13:12:51.460Z,98591.00
2022-09-27T13:15:57.013Z,98588.47
2022-09-27T13:19:02.151Z,98587.97
2022-09-27T13:22:05.009Z,98579.19
2022-09-27T13:25:36.460Z,98573.59
2022-09-27T13:28:41.036Z,98576.50
2022-09-27T13:31:54.913Z,98566.59
2022-09-27T13:35:10.411Z,98563.75
2022-09-27T13:38:22.329Z,98565.66
2022-09-27T13:41:24.188Z,98569.00
2022-09-27T13:44:35.002Z,98562.63
2022-09-27T13:47:44.493Z,98564.25
2022-09-27T13:50:46.708Z,98553.94
2022-09-27T13:53:59.576Z,98545.50
2022-09-27T13:57:02.430Z,98546.72
2022-09-27T14:00:07.370Z,98545.03
2022-09-27T14:03:12.386Z,98553.37
2022-09-27T14:06:17.336Z,98559.78
2022-09-27T14:09:21.298Z,98552.84
2022-09-27T14:12:29.472Z,98568.09
2022-09-27T14:15:32.702Z,98608.78
2022-09-27T14:18:37.741Z,98610.00
2022-09-27T14:21:40.199Z,98614.31
2022-09-27T14:24:42.067Z,98614.00
2022-09-27T14:27:43.875Z,98623.28
2022-09-27T14:30:46.862Z,98604.41
2022-09-27T14:33:49.772Z,98606.28
2022-09-27T14:37:12.134Z,98606.13
2022-09-27T14:40:20.876Z,98611.69
2022-09-27T14:43:23.749Z,98614.78
2022-09-27T14:46:27.535Z,98619.81
2022-09-27T14:49:29.528Z,98617.50
2022-09-27T14:52:35.509Z,98622.94
2022-09-27T14:55:38.692Z,98636.00
2022-09-27T14:58:47.714Z,98627.31
2022-09-27T15:01:51.281Z,98625.47
2022-09-27T15:04:53.692Z,98624.44
2022-09-27T15:07:58.864Z,98622.13
2022-09-27T15:11:04.379Z,98631.44
2022-09-27T15:14:07.289Z,98629.56
2022-09-27T15:17:20.919Z,98633.00
2022-09-27T15:20:25.528Z,98642.41
2022-09-27T15:23:28.711Z,98631.16
2022-09-27T15:26:43.095Z,98639.91
2022-09-27T15:29:51.900Z,98648.12
2022-09-27T15:32:56.031Z,98641.34
2022-09-27T15:36:03.662Z,98648.72
2022-09-27T15:39:10.364Z,98649.72
2022-09-27T15:42:14.608Z,98665.06
2022-09-27T15:45:29.169Z,98665.34
2022-09-27T15:48:32.948Z,98672.53
2022-09-27T15:51:39.562Z,98670.56
2022-09-27T15:54:41.399Z,98678.56
2022-09-27T15:57:45.880Z,98686.88
2022-09-27T16:00:51.618Z,98688.84
2022-09-27T16:03:53.562Z,98696.88
2022-09-27T16:06:55.982Z,98703.72
2022-09-27T16:09:57.872Z,98701.88
2022-09-27T16:12:59.840Z,98706.47
2022-09-27T16:16:02.552Z,98707.56
2022-09-27T16:19:04.630Z,98706.09
2022-09-27T16:22:06.532Z,98704.34
2022-09-27T16:25:09.843Z,98706.28
2022-09-27T16:28:11.926Z,98712.00
2022-09-27T16:31:17.304Z,98712.84
2022-09-27T16:34:21.546Z,98712.37
2022-09-27T16:37:25.544Z,98706.00
2022-09-27T16:40:28.302Z,98703.38
2022-09-27T16:43:31.956Z,98703.06
2022-09-27T16:46:36.322Z,98714.00
2022-09-27T16:50:01.529Z,98725.12
2022-09-27T16:53:05.637Z,98725.78
2022-09-27T16:56:08.471Z,98723.84
2022-09-27T16:59:11.181Z,98734.94
2022-09-27T17:02:16.357Z,98739.66
2022-09-27T17:05:20.336Z,98734.75
2022-09-27T17:08:25.899Z,98735.25
2022-09-27T17:11:28.120Z,98747.38
2022-09-27T17:14:34.294Z,98753.78
2022-09-27T17:17:37.607Z,98759.66
2022-09-27T17:20:40.030Z,98749.69
2022-09-27T17:23:42.109Z,98756.84
2022-09-27T17:26:46.552Z,98756.84
2022-09-27T17:29:50.175Z,98763.22
2022-09-27T17:32:54.245Z,98773.03
2022-09-27T17:36:06.352Z,98776.47
2022-09-27T17:39:11.823Z,98766.31
2022-09-27T17:42:14.925Z,98770.25
2022-09-27T17:45:18.380Z,98758.81
2022-09-27T17:48:41.287Z,98766.84
2022-09-27T17:51:47.324Z,98765.00
2022-09-27T17:54:51.624Z,98761.72
2022-09-27T17:57:53.858Z,98768.63
2022-09-27T18:01:00.928Z,98772.72
2022-09-27T18:04:09.240Z,98770.56
2022-09-27T18:07:20.093Z,98780.56
2022-09-27T18:10:29.686Z,98776.38
2022-09-27T18:13:44.836Z,98775.56
2022-09-27T18:17:01.483Z,98775.13
2022-09-27T18:20:13.769Z,98792.16
2022-09-27T18:23:18.421Z,98802.78
2022-09-27T18:26:24.923Z,98813.38
2022-09-27T18:29:33.516Z,98812.25
2022-09-27T18:32:44.965Z,98816.53
2022-09-27T18:35:51.238Z,98825.84
2022-09-27T18:38:56.682Z,98832.56
2022-09-27T18:42:09.579Z,98826.00
2022-09-27T18:45:14.059Z,98824.38
2022-09-27T18:48:26.871Z,98815.41
2022-09-27T18:51:38.006Z,98812.78
2022-09-27T18:54:42.281Z,98832.25
2022-09-27T18:58:04.845Z,98834.50
2022-09-27T19:01:17.273Z,98835.66
2022-09-27T19:04:30.864Z,98852.59
2022-09-27T19:07:34.933Z,98850.97
2022-09-27T19:10:37.867Z,98859.81
2022-09-27T19:13:49.077Z,98864.38
2022-09-27T19:16:56.322Z,98860.47
2022-09-27T19:20:18.627Z,98862.66
2022-09-27T19:23:26.385Z,98866.28
2022-09-27T19:26:47.318Z,98862.22
2022-09-27T19:30:01.722Z,98867.72
2022-09-27T19:33:06.737Z,98869.50
2022-09-27T19:36:10.986Z,98868.38
2022-09-27T19:39:13.917Z,98868.06
2022-09-27T19:42:17.949Z,98862.22
2022-09-27T19:45:24.140Z,98864.63
2022-09-27T19:48:35.071Z,98862.88
2022-09-27T19:51:45.428Z,98861.50
2022-09-27T19:54:53.474Z,98860.53
2022-09-27T19:57:56.757Z,98864.16
2022-09-27T20:01:01.094Z,98867.09
2022-09-27T20:04:07.212Z,98865.13
2022-09-27T20:07:15.023Z,98866.91
2022-09-27T20:10:19.015Z,98876.38
2022-09-27T20:13:26.768Z,98877.22
2022-09-27T20:16:41.737Z,98893.19
2022-09-27T20:19:50.410Z,98886.16
2022-09-27T20:22:57.349Z,98890.03
2022-09-27T20:26:04.714Z,98898.44
2022-09-27T20:29:11.307Z,98894.13
2022-09-27T20:32:27.327Z,98895.84
2022-09-27T20:35:33.336Z,98908.25
2022-09-27T20:38:37.403Z,98892.06
2022-09-27T20:41:43.268Z,98888.94
2022-09-27T20:44:48.725Z,98884.66
2022-09-27T20:47:56.042Z,98885.34
2022-09-27T20:51:04.663Z,98892.38
2022-09-27T20:54:12.281Z,98896.25
2022-09-27T20:57:18.449Z,98882.31
2022-09-27T21:00:28.039Z,98882.28
2022-09-27T21:03:36.557Z,98877.94
2022-09-27T21:06:44.474Z,98880.28
2022-09-27T21:09:49.748Z,98886.31
2022-09-27T21:12:54.974Z,98892.31
2022-09-27T21:16:14.543Z,98892.16
2022-09-27T21:19:19.084Z,98900.47
2022-09-27T21:22:26.090Z,98902.91
2022-09-27T21:25:33.513Z,98898.53
2022-09-27T21:28:43.534Z,98891.25
2022-09-27T21:31:48.431Z,98883.53
2022-09-27T21:34:52.618Z,98870.59
2022-09-27T21:37:57.632Z,98873.78
2022-09-27T21:41:04.953Z,98871.16
2022-09-27T21:44:26.132Z,98881.75
2022-09-27T21:47:32.506Z,98890.63
2022-09-27T21:50:39.839Z,98891.75
2022-09-27T21:53:44.448Z,98899.84
2022-09-27T21:56:52.871Z,98891.44
2022-09-27T21:59:58.566Z,98901.75
2022-09-27T22:03:03.007Z,98903.41
2022-09-27T22:06:12.345Z,98900.78
2022-09-27T22:09:16.593Z,98897.94
2022-09-27T22:12:20.003Z,98907.88
2022-09-27T22:15:22.818Z,98921.75
2022-09-27T22:18:27.881Z,98919.81
2022-09-27T22:21:38.911Z,98914.00
2022-09-27T22:24:44.336Z,98919.59
2022-09-27T22:27:52.677Z,98927.78
2022-09-27T22:30:56.359Z,98915.91
2022-09-27T22:34:01.620Z,98896.97
2022-09-27T22:37:04.356Z,98914.56
2022-09-27T22:40:13.218Z,98919.50
2022-09-27T22:43:23.746Z,98914.88
2022-09-27T22:46:28.085Z,98922.00
2022-09-27T22:49:39.319Z,98920.69
2022-09-27T22:52:54.583Z,98919.31
2022-09-27T22:55:59.670Z,98933.75
2022-09-27T22:59:14.118Z,98931.47
2022-09-27T23:02:17.460Z,98938.78
2022-09-27T23:05:19.992Z,98940.66
2022-09-27T23:08:28.228Z,98942.28
2022-09-27T23:11:31.042Z,98938.75
2022-09-27T23:14:33.653Z,98943.56
2022-09-27T23:17:47.711Z,98941.13
2022-09-27T23:20:53.373Z,98946.19
2022-09-27T23:23:57.682Z,98949.06
2022-09-27T23:27:18.765Z,98948.13
2022-09-27T23:30:24.742Z,98943.06
2022-09-27T23:33:32.552Z,98941.97
2022-09-27T23:36:39.133Z,98953.88
2022-09-27T23:39:47.577Z,98942.37
2022-09-27T23:42:58.813Z,98939.63
2022-09-27T23:46:02.116Z,98936.34
2022-09-27T23:49:06.918Z,98937.72
2022-09-27T23:52:15.371Z,98943.06
2022-09-27T23:55:18.172Z,98942.37
2022-09-27T23:58:25.759Z,98950.72
